Terminal Aerodrome Forecast
Issued by NWS

Home | Current Version | Previous Version | Text Only | Print | Product List | Glossary On
Versions: 1 2 3 4 5 6 7 8 9 10 11 12 13
000
FTUS46 KPDT 272300
TAFBDN
TAF
KBDN 272320Z 2800/2824 34010KT P6SM FEW100 BKN150
     FM280500 VRB05KT P6SM BKN150
     FM281000 21005KT P6SM SCT150
     FM282100 36011KT P6SM SCT120=

USA.gov is the U.S. government's official web portal to all federal, state and local government web resources and services.